Time;durP1;ratioP1;P1;durP2;ratioP2;P2;SDS_P1;SDS_P2;PMS_P1;PMS_P2;Temp;Humidity;BMP_temperature;BMP_pressure;BME280_temperature;BME280_humidity;BME280_pressure;Samples;Min_cycle;Max_cycle;Signal;HPM_P1;HPM_P2
2021/12/17 00:01:11;;;;;;;46.88;15.98;;;;;;;12.41;54.53;102984.88;5117039;28;20054;-72
2021/12/17 00:03:45;;;;;;;43.85;15.70;;;;;;;12.55;54.35;103000.13;5117115;28;20448;-72
2021/12/17 00:06:29;;;;;;;40.63;16.13;;;;;;;12.61;53.87;103003.28;5117076;28;20062;-72
2021/12/17 00:08:57;;;;;;;43.08;16.17;;;;;;;11.61;56.48;102992.09;5117103;28;20060;-72
2021/12/17 00:11:25;;;;;;;44.50;16.67;;;;;;;11.97;56.05;102992.81;5116834;28;20070;-72
2021/12/17 00:13:53;;;;;;;43.45;15.40;;;;;;;12.47;54.44;103007.72;5116572;28;20074;-72
2021/12/17 00:16:23;;;;;;;41.50;15.57;;;;;;;12.43;54.31;103016.88;5115660;28;20432;-72
2021/12/17 00:19:25;;;;;;;43.25;17.10;;;;;;;12.39;54.47;103013.53;5114921;28;20070;-72
2021/12/17 00:49:00;;;;;;;44.25;17.05;;;;;;;12.56;53.85;103009.88;5115927;28;20059;-72
2021/12/17 00:51:54;;;;;;;40.42;16.77;;;;;;;12.69;53.41;103000.16;5116208;28;20130;-72
2021/12/17 00:54:22;;;;;;;43.30;16.13;;;;;;;12.42;53.75;102999.13;5115488;28;20063;-72
2021/12/17 00:56:54;;;;;;;44.92;17.13;;;;;;;12.25;54.67;103008.97;5115921;28;20440;-72
2021/12/17 00:59:22;;;;;;;42.80;16.58;;;;;;;12.52;53.81;103001.16;5114737;28;20067;-72
2021/12/17 01:01:51;;;;;;;43.78;15.25;;;;;;;12.46;54.30;102997.97;5115758;28;20055;-72
2021/12/17 01:04:18;;;;;;;56.17;15.15;;;;;;;12.29;54.46;102994.47;5115373;28;20404;-72
2021/12/17 01:06:45;;;;;;;52.85;15.88;;;;;;;12.33;54.39;102992.47;5114047;28;20044;-72
2021/12/17 01:09:16;;;;;;;48.05;15.63;;;;;;;12.37;54.08;102991.38;5114509;28;20131;-72
2021/12/17 01:11:43;;;;;;;26.75;10.73;;;;;;;12.30;54.37;102990.88;5115351;28;20124;-72
2021/12/17 01:14:10;;;;;;;47.35;15.45;;;;;;;12.37;54.11;102992.22;5114825;28;20086;-72
2021/12/17 01:16:36;;;;;;;51.05;15.15;;;;;;;11.98;55.37;102986.50;5113031;28;20051;-72
2021/12/17 01:19:16;;;;;;;46.97;14.85;;;;;;;12.11;55.24;102980.38;5114258;28;20126;-72
2021/12/17 01:24:30;;;;;;;48.88;14.20;;;;;;;12.28;54.49;102983.88;5114229;28;20059;-72
2021/12/17 01:35:37;;;;;;;52.20;14.85;;;;;;;12.25;54.16;102998.28;5051745;28;20075;-72
2021/12/17 01:43:36;;;;;;;36.95;15.10;;;;;;;12.37;54.38;103012.78;5051804;28;20067;-73
2021/12/17 01:46:05;;;;;;;49.80;16.80;;;;;;;12.43;53.81;103015.06;5051487;28;20493;-72
2021/12/17 01:48:51;;;;;;;40.25;14.52;;;;;;;12.42;54.11;103001.78;5051303;28;20077;-72
2021/12/17 01:56:58;;;;;;;48.95;14.82;;;;;;;12.22;54.10;102992.25;5053317;28;20448;-72
2021/12/17 01:59:33;;;;;;;38.47;14.05;;;;;;;12.46;53.74;102989.97;5053075;28;20094;-72
2021/12/17 02:02:04;;;;;;;41.25;14.75;;;;;;;12.22;54.06;102987.78;5113703;28;20063;-72
2021/12/17 02:04:34;;;;;;;48.63;15.70;;;;;;;12.21;54.47;102982.53;5114881;28;20063;-72
2021/12/17 02:07:22;;;;;;;45.13;15.10;;;;;;;12.17;54.47;102978.31;5114449;28;20063;-72
2021/12/17 02:10:29;;;;;;;47.78;14.77;;;;;;;12.33;54.07;102982.69;5076646;28;20075;-72
2021/12/17 02:21:24;;;;;;;45.28;13.35;;;;;;;11.73;55.09;102970.97;5114481;28;20071;-72
2021/12/17 02:32:22;;;;;;;46.65;13.23;;;;;;;11.96;54.61;102969.72;5091953;28;20481;-72
2021/12/17 02:37:29;;;;;;;46.35;13.52;;;;;;;12.25;53.90;102963.53;5112324;28;20130;-72
2021/12/17 02:42:23;;;;;;;37.47;12.82;;;;;;;12.01;54.55;102971.16;5112818;28;20039;-72
2021/12/17 02:45:34;;;;;;;40.83;12.45;;;;;;;12.37;53.81;102983.34;5113650;28;20131;-72
2021/12/17 02:48:09;;;;;;;42.33;11.77;;;;;;;12.19;53.71;102971.03;5114504;28;20092;-72
2021/12/17 02:50:43;;;;;;;50.80;13.02;;;;;;;12.02;54.67;102978.25;5114719;28;20043;-72
2021/12/17 02:53:11;;;;;;;48.03;13.23;;;;;;;12.35;53.40;102980.75;5114481;28;20063;-72
2021/12/17 02:55:44;;;;;;;43.33;12.63;;;;;;;12.25;53.65;102986.72;5118771;28;20399;-72
2021/12/17 02:58:11;;;;;;;40.05;12.50;;;;;;;12.58;52.74;102992.78;5118721;28;20078;-72
2021/12/17 03:00:40;;;;;;;45.65;13.90;;;;;;;11.90;54.08;102984.28;5117471;28;20050;-72
2021/12/17 03:03:08;;;;;;;37.78;13.00;;;;;;;12.34;53.35;102983.53;5118670;28;20072;-72
2021/12/17 03:05:39;;;;;;;41.97;12.07;;;;;;;12.48;52.89;102974.69;5116846;28;20059;-72
2021/12/17 03:08:07;;;;;;;41.83;12.63;;;;;;;12.38;53.34;102974.38;5116542;28;20088;-72
2021/12/17 03:10:33;;;;;;;41.83;12.27;;;;;;;12.44;53.14;102974.00;5116676;28;20059;-72
2021/12/17 03:13:03;;;;;;;40.33;12.02;;;;;;;12.13;53.25;102970.47;5117571;28;20503;-72
2021/12/17 03:18:47;;;;;;;38.83;13.20;;;;;;;12.37;53.45;102972.66;5117830;28;20123;-72
2021/12/17 03:23:48;;;;;;;40.65;12.32;;;;;;;12.33;52.93;102966.63;5117381;28;20090;-72
2021/12/17 03:26:17;;;;;;;44.47;12.90;;;;;;;11.97;54.01;102966.94;5107710;28;20048;-72
2021/12/17 03:28:47;;;;;;;34.92;11.90;;;;;;;12.47;52.86;102968.47;5116592;28;20137;-72
2021/12/17 03:31:15;;;;;;;50.65;12.65;;;;;;;12.55;52.50;102966.19;5115602;28;20043;-72
2021/12/17 03:33:44;;;;;;;42.50;11.20;;;;;;;12.49;52.62;102963.03;5115193;27;20468;-73
2021/12/17 03:36:14;;;;;;;44.55;12.60;;;;;;;12.40;52.99;102955.53;5115276;28;20118;-72
2021/12/17 03:38:43;;;;;;;35.17;11.52;;;;;;;12.33;53.14;102952.38;5116880;28;20554;-72
2021/12/17 03:41:19;;;;;;;47.30;13.30;;;;;;;12.27;53.27;102960.78;5114842;28;20226;-72
2021/12/17 03:43:47;;;;;;;42.70;11.73;;;;;;;12.10;53.30;102959.09;5114597;28;20082;-72
2021/12/17 03:46:14;;;;;;;40.38;11.43;;;;;;;12.17;53.45;102955.09;5097659;28;20061;-70
2021/12/17 03:48:42;;;;;;;35.75;11.32;;;;;;;12.17;53.33;102964.94;5115397;28;20071;-71
2021/12/17 03:51:14;;;;;;;48.35;12.02;;;;;;;11.80;54.35;102951.84;5114471;28;20118;-71
2021/12/17 03:53:42;;;;;;;;;;;;;;;11.82;53.77;102944.59;5116709;28;20074;-71
2021/12/17 03:56:10;;;;;;;38.85;11.52;;;;;;;11.97;53.50;102937.53;5116538;28;20010;-71
2021/12/17 03:58:36;;;;;;;36.80;12.90;;;;;;;12.33;52.99;102941.66;5117072;28;20071;-71
2021/12/17 04:01:04;;;;;;;37.78;11.48;;;;;;;12.34;52.76;102940.75;5115869;28;20464;-71
2021/12/17 04:03:31;;;;;;;46.80;11.35;;;;;;;11.85;54.20;102943.63;5116997;28;20078;-71
2021/12/17 04:05:58;;;;;;;38.20;12.27;;;;;;;11.95;53.90;102934.13;5116612;28;20043;-71
2021/12/17 04:08:24;;;;;;;40.33;12.32;;;;;;;12.09;53.39;102941.34;5116346;28;20047;-71
2021/12/17 04:10:52;;;;;;;42.10;11.98;;;;;;;11.65;54.54;102942.91;5117720;28;20051;-71
2021/12/17 04:15:56;;;;;;;44.70;12.18;;;;;;;12.08;53.61;102945.78;5115930;28;20063;-71
2021/12/17 04:18:23;;;;;;;39.10;11.88;;;;;;;12.28;53.01;102943.78;5115306;28;20103;-71
2021/12/17 04:20:50;;;;;;;41.38;12.82;;;;;;;12.35;52.78;102942.44;5116117;27;20118;-72
2021/12/17 04:23:16;;;;;;;48.47;12.38;;;;;;;12.13;53.60;102945.53;5114653;28;20393;-72
2021/12/17 04:25:42;;;;;;;43.28;12.65;;;;;;;12.13;53.46;102951.75;5116618;28;20130;-71
2021/12/17 04:28:09;;;;;;;42.88;13.45;;;;;;;11.98;54.29;102943.75;5116312;28;20471;-72
2021/12/17 04:30:37;;;;;;;50.08;13.10;;;;;;;12.18;53.24;102950.59;5116418;28;20200;-71
2021/12/17 04:33:04;;;;;;;46.63;12.50;;;;;;;12.22;53.34;102958.34;5116561;28;20043;-71
2021/12/17 04:35:30;;;;;;;47.17;13.88;;;;;;;12.32;52.72;102962.22;5117065;28;20111;-71
2021/12/17 04:37:58;;;;;;;36.38;11.10;;;;;;;12.12;52.96;102952.72;5116739;28;20114;-72
2021/12/17 04:40:25;;;;;;;47.55;13.13;;;;;;;12.22;53.35;102950.34;5115423;28;20118;-72
2021/12/17 04:45:20;;;;;;;38.40;12.80;;;;;;;12.47;52.69;102951.53;5115309;28;20461;-71
2021/12/17 04:58:47;;;;;;;50.72;12.80;;;;;;;12.64;52.10;102959.41;5116320;28;20130;-71
2021/12/17 05:01:15;;;;;;;41.55;12.30;;;;;;;12.17;53.02;102960.44;5114399;28;20126;-71
2021/12/17 05:03:42;;;;;;;35.95;12.45;;;;;;;12.11;53.29;102964.31;5115259;28;20075;-70
2021/12/17 05:06:14;;;;;;;40.03;12.48;;;;;;;12.19;52.88;102968.38;5115411;28;20096;-71
2021/12/17 05:08:40;;;;;;;35.03;11.73;;;;;;;12.29;53.03;102967.72;5115928;28;20042;-71
2021/12/17 05:11:22;;;;;;;36.75;12.88;;;;;;;11.68;54.63;102952.56;5115605;28;20078;-71
2021/12/17 05:21:48;;;;;;;47.85;12.23;;;;;;;12.04;53.59;102954.94;5115571;28;20095;-71
2021/12/17 05:24:14;;;;;;;42.58;12.40;;;;;;;12.22;53.06;102957.50;5115237;28;20074;-71
2021/12/17 05:26:41;;;;;;;43.47;13.40;;;;;;;11.82;54.49;102960.66;5113474;28;20480;-71
2021/12/17 05:29:07;;;;;;;38.20;12.50;;;;;;;11.63;54.16;102958.13;5113445;28;20460;-71
2021/12/17 05:31:34;;;;;;;35.08;11.40;;;;;;;11.39;54.82;102954.16;5114816;28;20436;-71
2021/12/17 05:34:00;;;;;;;29.85;12.13;;;;;;;11.71;54.43;102951.50;5114856;28;20075;-71
2021/12/17 05:36:27;;;;;;;43.42;12.48;;;;;;;12.20;53.22;102954.94;5113642;28;20134;-71
2021/12/17 05:38:53;;;;;;;37.95;12.18;;;;;;;12.16;53.40;102966.75;5114565;28;20047;-71
2021/12/17 05:41:21;;;;;;;37.50;12.60;;;;;;;12.09;53.36;102974.28;5114780;28;20108;-70
2021/12/17 05:43:55;;;;;;;42.13;13.40;;;;;;;11.68;54.17;102983.75;5114187;28;20103;-71
2021/12/17 05:46:36;;;;;;;41.72;12.90;;;;;;;12.01;53.42;102978.31;5114516;28;20050;-70
2021/12/17 05:49:04;;;;;;;44.78;13.45;;;;;;;12.26;53.22;102983.09;5115232;28;20070;-70
2021/12/17 05:51:30;;;;;;;41.60;13.10;;;;;;;11.95;53.92;102981.34;5114972;28;20127;-72
2021/12/17 05:53:58;;;;;;;41.72;11.95;;;;;;;11.87;53.82;102981.78;5114062;28;20130;-71
2021/12/17 05:56:24;;;;;;;41.08;12.52;;;;;;;11.98;53.83;102976.69;5095915;28;20061;-71
2021/12/17 05:58:51;;;;;;;45.30;12.18;;;;;;;12.07;53.42;102980.66;5113011;28;20082;-71
2021/12/17 06:01:18;;;;;;;40.03;12.85;;;;;;;12.13;53.22;102983.84;5113173;28;20507;-72
2021/12/17 06:03:44;;;;;;;56.20;18.23;;;;;;;12.01;53.75;102981.00;5115199;28;20074;-71
2021/12/17 06:06:11;;;;;;;40.45;15.98;;;;;;;12.20;53.39;102980.81;5114834;28;20419;-71
2021/12/17 06:08:37;;;;;;;37.50;12.98;;;;;;;12.41;52.82;102970.66;5113676;28;20127;-71
2021/12/17 06:11:03;;;;;;;40.80;12.35;;;;;;;11.83;53.96;102966.84;5096415;28;20454;-71
2021/12/17 06:13:30;;;;;;;37.55;13.27;;;;;;;12.27;52.87;102963.44;5114280;28;20123;-71
2021/12/17 06:15:57;;;;;;;37.40;11.48;;;;;;;12.43;52.70;102974.09;5114584;28;20063;-71
2021/12/17 06:18:23;;;;;;;34.35;11.40;;;;;;;11.88;54.19;102980.81;5114340;28;20134;-71
2021/12/17 06:20:50;;;;;;;50.58;11.95;;;;;;;12.31;52.99;102981.88;5115089;28;20047;-71
2021/12/17 06:23:16;;;;;;;43.08;12.82;;;;;;;12.17;53.50;102987.19;5097314;28;20130;-71
2021/12/17 06:25:43;;;;;;;37.70;11.75;;;;;;;11.72;54.17;102985.31;5115699;28;20051;-71
2021/12/17 06:28:09;;;;;;;32.05;10.80;;;;;;;11.62;54.24;102985.81;5117200;28;20130;-71
2021/12/17 06:30:36;;;;;;;51.83;12.57;;;;;;;12.27;52.90;102998.22;5120141;28;20099;-71
2021/12/17 06:33:02;;;;;;;38.03;11.73;;;;;;;12.35;52.47;102990.59;5119829;28;20104;-71
2021/12/17 06:35:29;;;;;;;34.30;11.25;;;;;;;12.24;53.00;102995.72;5118614;28;20188;-71
2021/12/17 06:37:56;;;;;;;37.42;10.93;;;;;;;12.06;53.39;102994.97;5119097;28;20075;-71
2021/12/17 06:40:26;;;;;;;43.13;10.55;;;;;;;11.62;54.70;102999.16;5118700;28;20057;-71
2021/12/17 06:42:52;;;;;;;40.40;11.38;;;;;;;11.32;55.52;103019.53;5119422;28;20063;-71
2021/12/17 06:45:34;;;;;;;39.03;11.45;;;;;;;11.92;53.75;103008.28;5118517;28;20086;-71
2021/12/17 06:48:01;;;;;;;32.75;11.40;;;;;;;11.99;53.53;103005.16;5119229;28;20056;-71
2021/12/17 06:56:39;;;;;;;39.17;11.35;;;;;;;12.19;53.05;103008.47;5117367;28;20063;-71
2021/12/17 07:01:19;;;;;;;38.60;9.68;;;;;;;12.08;52.93;102999.25;5117013;28;20057;-71
2021/12/17 07:06:55;;;;;;;41.55;10.73;;;;;;;12.18;53.14;102998.75;5118287;28;20072;-71
2021/12/17 07:09:59;;;;;;;35.42;9.77;;;;;;;12.14;52.94;102992.72;5118901;28;20070;-71
2021/12/17 07:17:54;;;;;;;43.03;10.20;;;;;;;11.89;54.32;102990.59;5116379;28;20126;-71
2021/12/17 07:34:16;;;;;;;43.88;11.10;;;;;;;12.04;53.19;103013.75;5117486;28;20063;-72
2021/12/17 07:39:18;;;;;;;33.08;10.20;;;;;;;11.76;54.30;103029.59;5116314;28;20139;-73
2021/12/17 07:41:45;;;;;;;44.33;9.65;;;;;;;11.99;53.13;103021.19;5118081;28;20066;-73
2021/12/17 07:44:13;;;;;;;36.65;10.65;;;;;;;12.04;53.67;103004.88;5118241;28;20432;-71
2021/12/17 07:46:39;;;;;;;35.55;10.95;;;;;;;12.35;52.73;103020.00;5118087;28;20071;-71
2021/12/17 07:49:06;;;;;;;46.22;11.15;;;;;;;12.41;52.31;103016.13;5118464;28;20126;-71
2021/12/17 07:51:32;;;;;;;35.25;9.30;;;;;;;12.22;52.76;103011.84;5118919;28;20107;-73
2021/12/17 07:53:58;;;;;;;34.60;9.95;;;;;;;12.29;52.67;103001.66;5116203;28;20134;-71
2021/12/17 07:56:30;;;;;;;33.53;9.75;;;;;;;12.08;53.33;102999.25;5115957;28;20048;-71
2021/12/17 07:58:56;;;;;;;35.88;9.75;;;;;;;12.26;52.74;102997.34;5116928;28;20524;-71
2021/12/17 08:01:24;;;;;;;36.72;10.55;;;;;;;11.99;53.58;102994.47;5117349;28;20135;-71
2021/12/17 08:03:50;;;;;;;51.67;11.82;;;;;;;12.21;53.00;102995.88;5117160;28;20126;-71
2021/12/17 08:06:17;;;;;;;34.28;10.18;;;;;;;12.26;53.21;102986.66;5107245;28;20055;-71
2021/12/17 08:08:43;;;;;;;41.33;11.30;;;;;;;11.79;54.14;102979.53;5117141;28;20130;-71
2021/12/17 08:11:10;;;;;;;39.30;11.13;;;;;;;12.23;53.00;102977.97;5116195;28;20130;-71
2021/12/17 08:13:36;;;;;;;38.30;10.68;;;;;;;12.20;53.13;102980.81;5117103;28;20043;-71
2021/12/17 08:16:38;;;;;;;28.67;9.57;;;;;;;12.29;53.00;102981.09;5118131;28;20040;-71
2021/12/17 08:32:01;;;;;;;46.38;10.95;;;;;;;12.34;52.96;102967.47;5118301;28;20197;-72
2021/12/17 08:34:28;;;;;;;33.80;9.27;;;;;;;11.87;54.21;102953.25;5119152;28;20051;-72
2021/12/17 08:36:54;;;;;;;36.17;10.80;;;;;;;12.38;52.64;102966.34;5116960;28;20498;-72
2021/12/17 08:39:22;;;;;;;26.67;9.48;;;;;;;11.74;54.47;102973.59;5116482;28;20221;-71
2021/12/17 08:41:53;;;;;;;40.08;9.10;;;;;;;11.73;54.65;102981.66;5116071;28;20126;-72
2021/12/17 08:44:21;;;;;;;32.88;10.10;;;;;;;12.10;53.73;102997.38;5116324;28;20503;-72
2021/12/17 08:46:48;;;;;;;39.92;10.82;;;;;;;12.31;52.97;103000.63;5117428;28;20460;-72
2021/12/17 08:49:15;;;;;;;43.58;10.07;;;;;;;12.25;53.07;102978.72;5115570;28;20111;-72
2021/12/17 08:51:43;;;;;;;45.20;10.40;;;;;;;12.27;52.77;102993.72;5116812;28;20126;-72
2021/12/17 08:54:10;;;;;;;24.95;8.90;;;;;;;12.02;53.38;102988.94;5115988;28;20039;-72
2021/12/17 08:56:43;;;;;;;40.47;8.93;;;;;;;11.95;53.50;102984.91;5116978;28;20067;-71
2021/12/17 08:59:10;;;;;;;42.45;9.60;;;;;;;11.99;53.44;102989.13;5116740;28;20543;-71
2021/12/17 09:01:36;;;;;;;31.13;9.30;;;;;;;12.16;53.04;102990.81;5117598;28;20127;-71
2021/12/17 09:04:03;;;;;;;35.38;8.70;;;;;;;11.73;53.93;102995.88;5116349;28;20126;-71
2021/12/17 09:06:30;;;;;;;33.65;8.90;;;;;;;12.38;52.26;103003.78;5117121;28;20126;-71
2021/12/17 09:08:57;;;;;;;34.15;8.73;;;;;;;12.45;51.82;103005.16;5114727;28;20127;-71
2021/12/17 09:11:27;;;;;;;38.88;8.82;;;;;;;12.35;52.37;103002.16;5115367;28;20056;-71
2021/12/17 09:13:56;;;;;;;33.00;9.82;;;;;;;11.76;53.70;103008.22;5116424;28;20124;-71
2021/12/17 09:16:24;;;;;;;35.00;8.55;;;;;;;12.32;52.65;103014.84;5116931;28;20479;-71
2021/12/17 09:18:52;;;;;;;30.45;8.82;;;;;;;12.18;53.14;103014.78;5116504;27;20134;-71
2021/12/17 09:21:19;;;;;;;30.27;9.40;;;;;;;12.07;53.44;103016.25;5115007;28;20043;-71
2021/12/17 09:23:46;;;;;;;30.40;8.50;;;;;;;12.32;52.35;103017.50;5105311;28;20066;-72
2021/12/17 09:26:14;;;;;;;40.05;9.18;;;;;;;12.10;53.11;103020.56;5096654;28;20470;-73
2021/12/17 09:28:40;;;;;;;26.80;7.65;;;;;;;12.33;52.66;103025.47;5113040;28;20070;-72
2021/12/17 09:31:12;;;;;;;30.73;8.85;;;;;;;12.30;52.76;103036.34;5081023;28;20528;-73
2021/12/17 09:33:41;;;;;;;33.22;8.85;;;;;;;12.52;52.09;103056.47;5074330;28;20112;-72
2021/12/17 09:36:08;;;;;;;29.85;9.00;;;;;;;12.56;51.75;103044.66;5073651;28;20071;-72
2021/12/17 09:38:34;;;;;;;40.33;12.45;;;;;;;12.79;51.17;103040.63;5073564;28;20119;-72
2021/12/17 09:41:01;;;;;;;31.35;9.65;;;;;;;12.51;52.24;103031.56;5072912;28;20052;-72
2021/12/17 09:43:32;;;;;;;35.10;10.05;;;;;;;12.24;52.88;103028.66;5073251;28;20080;-72
2021/12/17 09:45:59;;;;;;;30.52;8.25;;;;;;;12.57;52.25;103041.00;5073275;28;20139;-72
2021/12/17 09:48:26;;;;;;;29.10;7.05;;;;;;;12.55;51.98;103040.25;5070544;28;20506;-72
2021/12/17 09:50:54;;;;;;;35.33;7.70;;;;;;;12.46;51.78;103025.59;5071606;28;20523;-73
2021/12/17 09:53:20;;;;;;;27.73;7.78;;;;;;;12.33;52.55;103029.94;5069769;28;20064;-74
2021/12/17 09:55:46;;;;;;;28.52;7.97;;;;;;;12.62;51.89;103030.91;5071279;28;20127;-73
2021/12/17 09:58:13;;;;;;;40.30;8.27;;;;;;;12.32;52.71;103037.09;5072497;28;20465;-72
2021/12/17 10:00:39;;;;;;;28.20;7.43;;;;;;;12.56;51.94;103029.44;5073914;28;20100;-72
2021/12/17 10:03:08;;;;;;;27.48;7.75;;;;;;;12.65;51.96;103029.88;5094360;28;20047;-74
2021/12/17 10:05:38;;;;;;;33.53;7.80;;;;;;;12.19;52.95;103027.19;5113092;28;20376;-74
2021/12/17 10:08:09;;;;;;;28.90;8.35;;;;;;;12.34;52.11;103026.31;5113605;28;20131;-73
2021/12/17 10:10:44;;;;;;;33.88;7.10;;;;;;;12.29;52.66;103045.28;5112153;28;20535;-72
2021/12/17 10:13:30;;;;;;;21.48;7.13;;;;;;;12.69;51.04;103037.63;5113173;28;20490;-72
2021/12/17 10:16:00;;;;;;;32.05;6.38;;;;;;;12.41;51.97;103038.38;5114892;28;20047;-74
2021/12/17 10:18:36;;;;;;;30.23;7.13;;;;;;;12.22;52.50;103046.59;5113382;28;20127;-72
2021/12/17 10:21:07;;;;;;;31.23;7.38;;;;;;;12.18;52.48;103041.53;5112606;28;20361;-73
2021/12/17 10:23:34;;;;;;;25.55;5.38;;;;;;;12.27;52.86;103044.53;5109539;28;20166;-73
2021/12/17 10:26:02;;;;;;;34.92;7.22;;;;;;;12.58;51.73;103040.94;5113350;28;20126;-72
2021/12/17 10:28:30;;;;;;;22.75;6.15;;;;;;;12.85;50.84;103033.09;5096769;28;20043;-71
2021/12/17 10:30:57;;;;;;;20.80;6.82;;;;;;;12.84;51.17;103046.53;5115805;28;20044;-72
2021/12/17 10:33:26;;;;;;;28.83;7.03;;;;;;;12.64;51.68;103034.34;5113683;28;20467;-72
2021/12/17 10:35:56;;;;;;;31.02;6.63;;;;;;;12.52;51.51;103041.28;5114622;28;20096;-71
2021/12/17 10:38:25;;;;;;;25.67;7.10;;;;;;;12.13;52.69;103034.63;5113495;28;20067;-72
2021/12/17 10:41:01;;;;;;;31.98;6.10;;;;;;;12.00;52.93;103028.25;5114277;28;20487;-73
2021/12/17 10:46:07;;;;;;;23.45;6.10;;;;;;;12.11;53.15;103031.16;5113090;28;20089;-74
2021/12/17 10:52:28;;;;;;;27.30;7.43;;;;;;;12.76;51.25;103032.75;5110228;28;20436;-72
2021/12/17 10:55:09;;;;;;;21.02;6.55;;;;;;;12.81;51.12;103033.34;5114290;28;20063;-71
2021/12/17 10:57:35;;;;;;;25.25;6.85;;;;;;;12.37;52.13;103037.72;5115680;28;20103;-73
2021/12/17 11:00:06;;;;;;;33.25;7.00;;;;;;;12.24;52.63;103023.31;5114849;28;20131;-72
2021/12/17 11:02:33;;;;;;;18.33;4.38;;;;;;;12.73;51.49;103035.63;5115558;28;20149;-74
2021/12/17 11:05:11;;;;;;;33.75;6.63;;;;;;;12.64;51.21;103034.34;5114453;28;20497;-74
2021/12/17 11:07:38;;;;;;;29.25;6.47;;;;;;;12.91;50.70;103031.84;5114209;28;20043;-73
2021/12/17 11:10:06;;;;;;;23.08;7.30;;;;;;;12.96;50.43;103024.41;5114977;28;20046;-75
2021/12/17 11:12:40;;;;;;;20.73;6.00;;;;;;;13.17;49.87;103021.38;5114951;28;20048;-74
2021/12/17 11:15:24;;;;;;;32.20;8.80;;;;;;;12.77;50.82;103029.13;5117005;28;20047;-75
2021/12/17 11:17:55;;;;;;;22.85;6.90;;;;;;;12.95;50.14;103024.47;5117366;28;20446;-73
2021/12/17 11:20:31;;;;;;;31.17;6.90;;;;;;;13.07;49.68;103035.31;5118505;28;20055;-73
2021/12/17 11:23:05;;;;;;;27.58;6.32;;;;;;;12.97;50.18;103031.47;5118246;28;20123;-73
2021/12/17 11:25:33;;;;;;;30.52;7.53;;;;;;;13.24;49.37;103033.44;5119843;28;20451;-74
2021/12/17 11:28:00;;;;;;;29.77;7.05;;;;;;;13.07;50.12;103021.91;5119816;28;20470;-73
2021/12/17 11:30:29;;;;;;;24.27;6.07;;;;;;;12.75;51.12;103015.84;5119776;28;20074;-73
2021/12/17 11:33:01;;;;;;;24.88;6.30;;;;;;;12.75;50.60;103021.22;5066785;28;20543;-73
2021/12/17 11:35:29;;;;;;;15.00;4.90;;;;;;;13.18;49.83;103015.03;5118842;28;20047;-73
2021/12/17 11:38:00;;;;;;;28.98;5.90;;;;;;;13.34;49.05;103023.03;5118120;28;20048;-72
2021/12/17 11:40:33;;;;;;;36.15;7.72;;;;;;;12.80;50.05;103032.47;5120135;28;20035;-73
2021/12/17 11:43:28;;;;;;;25.27;6.22;;;;;;;13.08;49.75;103030.81;5101992;28;20059;-73
2021/12/17 11:46:13;;;;;;;26.42;6.45;;;;;;;12.88;49.73;103036.50;5118171;28;20099;-74
2021/12/17 11:48:49;;;;;;;22.83;6.18;;;;;;;12.87;49.93;103035.66;5117108;28;20088;-73
2021/12/17 11:51:19;;;;;;;23.60;6.30;;;;;;;12.84;49.47;103030.47;5117082;28;20066;-73
2021/12/17 11:54:01;;;;;;;22.38;6.05;;;;;;;13.13;48.96;103035.88;5118154;28;20058;-74
2021/12/17 11:56:41;;;;;;;21.80;5.75;;;;;;;13.29;48.43;103039.38;5114912;28;20039;-73
2021/12/17 11:59:31;;;;;;;30.13;5.80;;;;;;;13.51;47.97;103036.22;5115192;28;20475;-72
2021/12/17 12:02:11;;;;;;;32.10;6.50;;;;;;;13.41;48.43;103032.41;5116505;28;20107;-71
2021/12/17 12:04:41;;;;;;;23.15;5.55;;;;;;;13.54;47.85;103044.94;5115962;28;20090;-72
2021/12/17 12:07:18;;;;;;;26.95;6.38;;;;;;;13.48;47.73;103036.41;5114482;28;20182;-72
2021/12/17 12:10:09;;;;;;;28.70;6.63;;;;;;;12.89;49.05;103035.56;5115291;27;20483;-72
2021/12/17 12:12:38;;;;;;;29.05;6.80;;;;;;;13.37;48.24;103034.41;5116199;28;20131;-73
2021/12/17 12:15:16;;;;;;;22.45;5.30;;;;;;;12.98;48.84;103043.03;5116238;28;20043;-73
2021/12/17 12:17:58;;;;;;;22.40;5.15;;;;;;;13.29;48.45;103039.38;5115551;28;20058;-72
2021/12/17 12:20:43;;;;;;;30.67;6.10;;;;;;;13.14;48.50;103026.91;5116676;28;20089;-72
2021/12/17 12:23:19;;;;;;;19.92;5.00;;;;;;;13.15;48.90;103044.69;5116798;28;20119;-72
2021/12/17 12:26:11;;;;;;;21.48;5.50;;;;;;;13.13;48.76;103042.13;5116017;28;20515;-72
2021/12/17 12:31:25;;;;;;;27.58;6.13;;;;;;;13.22;48.60;103027.28;5117480;28;21171;-73
2021/12/17 12:34:00;;;;;;;29.58;6.63;;;;;;;13.17;48.85;103026.72;5099538;28;20044;-73
2021/12/17 12:36:46;;;;;;;28.33;6.13;;;;;;;13.51;47.89;103036.22;5118369;28;20050;-72
2021/12/17 12:39:21;;;;;;;20.02;5.40;;;;;;;13.44;48.19;103040.22;5099676;28;20502;-71
2021/12/17 12:41:58;;;;;;;20.15;5.50;;;;;;;13.21;48.07;103033.59;5117507;28;20049;-72
2021/12/17 12:44:39;;;;;;;31.90;5.43;;;;;;;13.14;47.99;103041.16;5100082;28;20360;-71
2021/12/17 12:47:08;;;;;;;26.00;5.57;;;;;;;13.27;47.56;103036.81;5116103;28;20495;-72
2021/12/17 12:49:43;;;;;;;21.85;5.15;;;;;;;12.63;48.82;103026.41;5117344;28;20044;-72
2021/12/17 12:52:29;;;;;;;25.38;5.10;;;;;;;12.59;49.10;103023.06;5098714;28;20043;-73
2021/12/17 12:54:59;;;;;;;18.90;5.07;;;;;;;13.19;47.48;103025.66;5114954;28;20419;-72
2021/12/17 12:57:31;;;;;;;20.65;6.18;;;;;;;12.93;48.44;103034.44;5106860;28;20043;-72
2021/12/17 13:00:03;;;;;;;28.75;5.07;;;;;;;13.15;47.57;103028.63;5114945;28;20065;-72
2021/12/17 13:02:30;;;;;;;23.15;4.28;;;;;;;13.16;47.59;103022.28;5117050;28;20135;-72
2021/12/17 13:04:58;;;;;;;18.13;4.63;;;;;;;13.32;46.94;103018.59;5117089;28;20520;-72
2021/12/17 13:07:40;;;;;;;28.80;4.35;;;;;;;12.77;48.35;103013.06;5115829;28;20044;-73
2021/12/17 13:10:14;;;;;;;17.63;5.15;;;;;;;13.03;47.36;103012.34;5121023;28;20070;-72
2021/12/17 13:12:46;;;;;;;26.95;4.78;;;;;;;13.32;46.76;103005.22;5121776;28;20368;-72
2021/12/17 13:23:21;;;;;;;20.63;4.00;;;;;;;13.46;46.60;103032.97;5122033;28;20067;-72
2021/12/17 13:26:10;;;;;;;24.17;4.85;;;;;;;13.09;47.35;103035.19;5118657;28;20039;-72
2021/12/17 13:28:49;;;;;;;23.15;4.78;;;;;;;13.35;46.61;103039.00;5114900;28;20555;-72
2021/12/17 13:31:52;;;;;;;21.60;3.97;;;;;;;13.30;46.58;103022.31;5114927;28;20488;-72
2021/12/17 13:34:20;;;;;;;20.58;3.97;;;;;;;13.44;45.93;103018.78;5115655;28;20067;-73
2021/12/17 13:37:19;;;;;;;23.25;3.95;;;;;;;13.44;46.03;103016.09;5114034;28;20456;-72
2021/12/17 13:40:08;;;;;;;29.35;4.63;;;;;;;13.28;46.51;103005.50;5095153;28;20047;-72
2021/12/17 13:42:37;;;;;;;16.88;4.07;;;;;;;13.52;45.82;103006.66;5114151;28;20039;-72
2021/12/17 13:45:07;;;;;;;22.42;4.85;;;;;;;13.52;45.68;103009.31;5114342;28;20139;-72
2021/12/17 13:47:36;;;;;;;26.13;5.90;;;;;;;13.05;46.60;103015.78;5115373;28;20473;-72
2021/12/17 13:50:32;;;;;;;15.02;4.40;;;;;;;13.56;45.67;103020.72;5116430;28;20066;-72
2021/12/17 13:53:04;;;;;;;24.33;5.75;;;;;;;13.49;45.62;103022.91;5114089;28;20040;-73
2021/12/17 13:55:37;;;;;;;19.23;5.20;;;;;;;13.17;46.96;103002.63;5109303;28;20409;-73
2021/12/17 13:58:21;;;;;;;18.42;4.65;;;;;;;13.28;46.38;102998.34;5114789;28;20040;-73
2021/12/17 14:00:57;;;;;;;20.60;4.28;;;;;;;13.31;46.72;103016.03;5114901;28;20455;-73
2021/12/17 14:03:32;;;;;;;14.98;4.43;;;;;;;13.08;47.37;103014.75;5113979;28;20052;-73
2021/12/17 14:06:16;;;;;;;14.05;3.58;;;;;;;13.51;46.05;103034.41;5114476;28;20118;-73
2021/12/17 14:08:43;;;;;;;17.90;4.03;;;;;;;13.30;46.77;103033.03;5112510;28;20115;-73
2021/12/17 14:11:33;;;;;;;15.25;4.45;;;;;;;13.40;46.42;103034.19;5112768;28;20108;-73
2021/12/17 14:14:21;;;;;;;24.10;4.38;;;;;;;13.54;46.53;103044.03;5082742;28;20052;-73
2021/12/17 14:16:56;;;;;;;33.08;5.55;;;;;;;13.32;47.13;103040.03;5107871;28;20494;-73
2021/12/17 14:19:37;;;;;;;22.92;4.82;;;;;;;13.23;47.28;103037.03;5112220;28;20067;-73